Time;durP1;ratioP1;P1;durP2;ratioP2;P2;SDS_P1;SDS_P2;PMS_P1;PMS_P2;Temp;Humidity;BMP_temperature;BMP_pressure;BME280_temperature;BME280_humidity;BME280_pressure;Samples;Min_cycle;Max_cycle;Signal;HPM_P1;HPM_P2
2022/03/31 00:01:16;;;;;;;15.32;9.48;;;23.90;41.00;;;;;;6130694;28;84342;-65
2022/03/31 00:04:17;;;;;;;13.88;8.50;;;23.90;41.00;;;;;;6128904;28;81406;-64
2022/03/31 00:07:17;;;;;;;12.02;7.72;;;23.90;41.00;;;;;;6119850;28;80302;-64
2022/03/31 00:10:18;;;;;;;12.90;7.90;;;23.90;40.90;;;;;;6111316;28;81605;-64
2022/03/31 00:13:18;;;;;;;13.93;8.55;;;23.90;40.90;;;;;;6112597;28;80388;-64
2022/03/31 00:16:19;;;;;;;14.35;8.45;;;23.90;40.90;;;;;;6133552;28;80291;-65
2022/03/31 00:19:19;;;;;;;13.43;8.32;;;23.90;40.80;;;;;;6120638;28;80895;-65
2022/03/31 00:22:20;;;;;;;12.27;8.10;;;23.90;40.80;;;;;;6136087;28;80585;-65
2022/03/31 00:25:21;;;;;;;11.43;7.32;;;23.90;40.80;;;;;;6129408;28;80498;-64
2022/03/31 00:28:22;;;;;;;10.77;7.22;;;23.90;41.00;;;;;;6135330;28;80418;-65
2022/03/31 00:31:23;;;;;;;12.68;7.88;;;23.90;40.70;;;;;;6134022;28;80473;-64
2022/03/31 00:34:23;;;;;;;11.75;7.28;;;23.90;40.80;;;;;;6128510;28;80895;-65
2022/03/31 00:37:24;;;;;;;12.55;8.02;;;23.90;40.90;;;;;;6117060;28;80944;-65
2022/03/31 00:40:25;;;;;;;9.80;7.35;;;23.90;40.90;;;;;;6123028;28;80748;-64
2022/03/31 00:43:26;;;;;;;10.15;6.72;;;23.90;41.10;;;;;;6134884;28;80436;-64
2022/03/31 00:46:26;;;;;;;10.60;7.20;;;23.90;40.90;;;;;;6134643;28;81957;-65
2022/03/31 00:49:27;;;;;;;9.65;6.03;;;23.90;40.80;;;;;;6132360;28;80874;-66
2022/03/31 00:52:27;;;;;;;9.10;6.38;;;23.80;40.60;;;;;;6134679;28;80233;-64
2022/03/31 00:55:28;;;;;;;10.52;6.43;;;23.80;40.70;;;;;;6128138;28;80434;-64
2022/03/31 00:58:28;;;;;;;8.48;5.88;;;23.80;40.80;;;;;;6126550;28;81478;-64
2022/03/31 01:01:29;;;;;;;8.15;6.10;;;23.80;40.90;;;;;;6122911;28;81285;-64
2022/03/31 01:04:29;;;;;;;8.00;5.93;;;23.80;40.70;;;;;;6127508;28;80578;-64
2022/03/31 01:07:30;;;;;;;10.43;5.97;;;23.80;40.70;;;;;;6128750;28;81428;-65
2022/03/31 01:10:30;;;;;;;8.57;5.57;;;23.80;40.60;;;;;;6125630;28;80448;-65
2022/03/31 01:13:31;;;;;;;8.18;5.72;;;23.80;40.50;;;;;;6128600;28;80474;-65
2022/03/31 01:16:31;;;;;;;8.73;6.00;;;23.90;40.50;;;;;;6123305;28;80984;-64
2022/03/31 01:19:32;;;;;;;8.57;5.68;;;23.80;40.40;;;;;;6135251;28;80955;-65
2022/03/31 01:22:33;;;;;;;8.40;5.25;;;23.80;40.40;;;;;;6136303;28;80875;-64
2022/03/31 01:25:34;;;;;;;8.50;4.65;;;23.80;40.20;;;;;;6136647;28;81648;-64
2022/03/31 01:28:34;;;;;;;7.13;5.40;;;23.80;40.50;;;;;;6129955;28;80700;-65
2022/03/31 01:31:35;;;;;;;7.43;5.30;;;23.80;40.20;;;;;;6134314;28;80407;-64
2022/03/31 01:34:35;;;;;;;7.20;4.80;;;23.80;40.60;;;;;;6137354;28;80567;-64
2022/03/31 01:37:36;;;;;;;7.20;4.60;;;23.80;40.40;;;;;;6140933;28;79965;-65
2022/03/31 01:40:37;;;;;;;6.45;4.53;;;23.80;40.40;;;;;;6140702;28;80464;-64
2022/03/31 01:43:37;;;;;;;6.78;4.72;;;23.80;40.70;;;;;;6135713;28;81412;-64
2022/03/31 01:46:38;;;;;;;5.97;4.53;;;23.80;40.30;;;;;;6138335;28;80595;-64
2022/03/31 01:49:38;;;;;;;6.82;4.70;;;23.80;40.10;;;;;;6136722;28;81403;-63
2022/03/31 01:52:39;;;;;;;6.45;4.93;;;23.80;40.20;;;;;;6135198;28;80430;-63
2022/03/31 01:55:40;;;;;;;7.65;4.95;;;23.80;40.10;;;;;;6134686;28;80453;-65
2022/03/31 01:58:41;;;;;;;7.70;4.75;;;23.80;40.20;;;;;;6136107;28;80767;-65
2022/03/31 02:01:41;;;;;;;8.88;5.05;;;23.80;40.10;;;;;;6136043;28;80625;-64
2022/03/31 02:04:42;;;;;;;6.28;4.38;;;23.70;40.00;;;;;;6135752;28;80756;-65
2022/03/31 02:07:42;;;;;;;5.88;4.68;;;23.80;40.20;;;;;;6133823;28;80429;-64
2022/03/31 02:10:43;;;;;;;7.40;4.97;;;23.80;40.00;;;;;;6135071;28;80667;-64
2022/03/31 02:13:44;;;;;;;8.00;4.95;;;23.80;39.90;;;;;;6137279;28;81865;-64
2022/03/31 02:16:45;;;;;;;11.52;5.25;;;23.70;39.80;;;;;;6138324;28;80361;-66
2022/03/31 02:19:46;;;;;;;6.95;4.65;;;23.80;40.00;;;;;;6141083;28;80437;-63
2022/03/31 02:22:46;;;;;;;7.57;5.20;;;23.80;39.80;;;;;;6129891;28;80853;-64
2022/03/31 02:25:47;;;;;;;8.57;4.40;;;23.80;39.90;;;;;;6123913;28;80559;-64
2022/03/31 02:28:47;;;;;;;7.10;4.65;;;23.80;40.00;;;;;;6137380;28;81169;-64
2022/03/31 02:31:48;;;;;;;7.82;4.47;;;23.80;39.80;;;;;;6131874;28;81483;-64
2022/03/31 02:34:49;;;;;;;7.30;4.90;;;23.80;39.90;;;;;;6131142;28;80640;-63
2022/03/31 02:37:49;;;;;;;5.97;4.28;;;23.80;40.50;;;;;;6130324;28;81060;-64
2022/03/31 02:40:50;;;;;;;7.60;4.93;;;23.80;39.80;;;;;;6129511;28;80399;-63
2022/03/31 02:43:51;;;;;;;6.38;4.97;;;23.80;39.80;;;;;;6129273;28;81527;-63
2022/03/31 02:46:52;;;;;;;9.10;4.90;;;23.70;39.70;;;;;;6132705;28;81477;-63
2022/03/31 02:49:52;;;;;;;6.43;4.53;;;23.70;39.50;;;;;;6129419;28;80212;-63
2022/03/31 02:56:12;;;;;;;8.48;5.05;;;23.70;39.70;;;;;;6131703;28;80942;-65
2022/03/31 02:59:13;;;;;;;7.00;4.47;;;23.70;39.70;;;;;;6133259;28;80457;-64
2022/03/31 03:02:13;;;;;;;7.18;4.63;;;23.70;39.80;;;;;;6131759;28;80925;-64
2022/03/31 03:05:14;;;;;;;4.80;3.47;;;23.70;39.60;;;;;;6130067;28;80291;-63
2022/03/31 03:08:15;;;;;;;6.30;3.90;;;23.70;40.20;;;;;;6132472;28;80488;-64
2022/03/31 03:11:17;;;;;;;4.40;3.22;;;23.70;40.20;;;;;;6135907;28;80322;-64
2022/03/31 03:14:18;;;;;;;5.45;4.15;;;23.70;40.10;;;;;;6130242;28;80329;-64
2022/03/31 03:17:18;;;;;;;4.95;3.53;;;23.70;39.70;;;;;;6127386;28;82329;-65
2022/03/31 03:20:19;;;;;;;4.88;3.55;;;23.70;39.90;;;;;;6128363;28;81257;-64
2022/03/31 03:23:19;;;;;;;4.55;3.67;;;23.70;39.80;;;;;;6127162;28;80910;-65
2022/03/31 03:26:20;;;;;;;5.88;3.60;;;23.70;39.60;;;;;;6127754;28;80805;-65
2022/03/31 03:29:21;;;;;;;6.80;4.13;;;23.70;39.40;;;;;;6129741;28;80728;-65
2022/03/31 03:32:22;;;;;;;3.97;3.22;;;23.70;39.60;;;;;;6134146;28;80963;-65
2022/03/31 03:35:22;;;;;;;5.93;3.72;;;23.70;39.20;;;;;;6136874;28;80813;-67
2022/03/31 03:38:23;;;;;;;6.22;3.45;;;23.70;39.30;;;;;;6139560;28;80473;-66
2022/03/31 03:41:23;;;;;;;5.75;3.45;;;23.70;39.60;;;;;;6137438;28;81768;-68
2022/03/31 03:44:24;;;;;;;6.05;3.20;;;23.70;39.70;;;;;;6132423;28;80398;-66
2022/03/31 03:47:25;;;;;;;5.47;3.00;;;23.70;39.50;;;;;;6135765;28;80536;-67
2022/03/31 03:50:25;;;;;;;4.45;2.95;;;23.70;39.50;;;;;;6135639;28;80801;-67
2022/03/31 03:53:26;;;;;;;3.90;3.10;;;23.70;39.40;;;;;;6133322;28;80079;-67
2022/03/31 03:56:26;;;;;;;5.15;3.13;;;23.70;39.40;;;;;;6137255;28;80383;-68
2022/03/31 03:59:27;;;;;;;6.18;4.00;;;23.70;39.40;;;;;;6136441;28;80504;-65
2022/03/31 04:02:27;;;;;;;7.90;3.53;;;23.70;39.30;;;;;;6136264;28;80902;-64
2022/03/31 04:05:28;;;;;;;5.38;3.05;;;23.70;39.60;;;;;;6138213;28;81142;-65
2022/03/31 04:08:28;;;;;;;5.38;3.00;;;23.80;39.60;;;;;;6135544;28;80454;-64
2022/03/31 04:11:29;;;;;;;5.95;2.78;;;23.80;39.80;;;;;;6135547;28;80561;-65
2022/03/31 04:14:29;;;;;;;4.05;2.67;;;23.80;40.00;;;;;;6133064;28;80959;-64
2022/03/31 04:17:30;;;;;;;4.10;1.90;;;23.80;40.00;;;;;;6118367;28;80321;-65
2022/03/31 04:20:31;;;;;;;4.95;2.35;;;23.80;40.00;;;;;;6139435;28;80188;-64
2022/03/31 04:23:31;;;;;;;3.80;2.38;;;23.80;40.00;;;;;;6136563;28;80841;-66
2022/03/31 04:26:32;;;;;;;3.15;2.35;;;23.80;40.10;;;;;;6136594;28;80363;-77
2022/03/31 04:29:32;;;;;;;3.72;2.85;;;23.80;40.20;;;;;;6135287;28;80358;-66
2022/03/31 04:32:33;;;;;;;2.47;2.08;;;23.70;40.20;;;;;;6136289;28;80812;-66
2022/03/31 04:35:35;;;;;;;4.25;2.58;;;23.80;40.30;;;;;;6135540;28;80224;-66
2022/03/31 04:38:36;;;;;;;4.03;2.38;;;23.70;40.70;;;;;;6136615;28;80334;-73
2022/03/31 04:41:36;;;;;;;3.78;2.55;;;23.70;40.60;;;;;;6135264;28;81379;-76
2022/03/31 04:44:40;;;;;;;2.40;2.13;;;23.70;40.50;;;;;;6132849;28;81591;-79
2022/03/31 04:47:40;;;;;;;3.22;2.33;;;23.80;40.40;;;;;;6109885;28;81840;-66
2022/03/31 04:50:41;;;;;;;2.92;2.10;;;23.70;40.80;;;;;;6110032;28;80698;-66
2022/03/31 04:53:41;;;;;;;4.47;2.25;;;23.80;40.60;;;;;;6110292;28;81868;-66
2022/03/31 04:56:42;;;;;;;7.45;2.17;;;23.80;40.90;;;;;;6111032;28;81156;-75
2022/03/31 04:59:42;;;;;;;4.47;2.30;;;23.80;40.70;;;;;;6131590;28;80262;-72
2022/03/31 05:02:43;;;;;;;4.28;1.90;;;23.80;40.70;;;;;;6112048;28;81150;-77
2022/03/31 05:05:43;;;;;;;10.23;2.55;;;23.90;40.60;;;;;;6117040;28;80482;-75
2022/03/31 05:08:44;;;;;;;5.40;2.45;;;23.90;40.60;;;;;;6110553;28;80109;-71
2022/03/31 05:11:44;;;;;;;7.30;2.60;;;23.80;40.50;;;;;;6118191;28;80335;-68
2022/03/31 05:14:45;;;;;;;18.70;2.47;;;23.80;40.20;;;;;;6130417;28;80620;-68
2022/03/31 05:17:45;;;;;;;7.20;2.83;;;23.80;40.90;;;;;;6110779;28;80250;-67
2022/03/31 05:20:46;;;;;;;7.07;2.60;;;23.90;40.80;;;;;;6131910;28;80206;-65
2022/03/31 05:23:46;;;;;;;6.95;2.22;;;23.90;41.10;;;;;;6114612;28;81968;-66
2022/03/31 05:26:48;;;;;;;6.38;2.10;;;23.90;41.10;;;;;;6127970;28;81468;-68
2022/03/31 05:29:48;;;;;;;6.68;2.20;;;23.90;40.80;;;;;;6124913;28;82027;-69
2022/03/31 05:32:51;;;;;;;10.80;2.53;;;23.90;41.20;;;;;;6120897;28;81336;-65
2022/03/31 05:35:52;;;;;;;9.27;2.22;;;23.90;41.20;;;;;;6129651;28;80210;-71
2022/03/31 05:38:52;;;;;;;4.32;2.05;;;23.90;41.10;;;;;;6128382;28;80630;-67
2022/03/31 05:41:53;;;;;;;4.75;2.50;;;23.90;40.80;;;;;;6126365;28;80373;-75
2022/03/31 05:44:53;;;;;;;6.97;2.17;;;23.90;40.70;;;;;;6133601;28;80202;-71
2022/03/31 05:47:54;;;;;;;4.93;2.25;;;23.90;40.70;;;;;;6131966;28;82102;-63
2022/03/31 05:50:54;;;;;;;6.07;2.30;;;23.80;40.40;;;;;;6125898;28;80604;-65
2022/03/31 05:53:55;;;;;;;6.88;2.38;;;23.80;40.50;;;;;;6126806;28;80348;-65
2022/03/31 05:56:55;;;;;;;5.28;1.85;;;23.80;40.60;;;;;;6133081;28;80314;-65
2022/03/31 05:59:56;;;;;;;3.85;1.70;;;23.80;40.50;;;;;;6133325;28;80869;-65
2022/03/31 06:02:56;;;;;;;2.85;1.55;;;23.80;40.40;;;;;;6132294;28;80740;-62
2022/03/31 06:06:00;;;;;;;4.47;1.70;;;23.70;40.20;;;;;;6129789;28;83751;-64
2022/03/31 06:09:01;;;;;;;2.88;1.80;;;23.70;39.90;;;;;;6129101;28;80385;-64
2022/03/31 06:12:02;;;;;;;2.15;1.92;;;23.70;39.70;;;;;;6137444;28;80231;-66
2022/03/31 06:15:02;;;;;;;17.42;2.22;;;23.70;39.60;;;;;;6133585;28;80505;-65
2022/03/31 06:18:03;;;;;;;3.55;1.70;;;23.70;39.50;;;;;;6136591;28;80408;-65
2022/03/31 06:21:03;;;;;;;2.15;1.70;;;23.70;39.50;;;;;;6136269;28;80242;-63
2022/03/31 06:24:04;;;;;;;2.60;1.60;;;23.70;39.50;;;;;;6113715;28;80391;-64
2022/03/31 06:27:06;;;;;;;2.28;1.50;;;23.70;39.40;;;;;;6120364;28;87966;-65
2022/03/31 06:30:06;;;;;;;5.13;1.90;;;23.60;39.40;;;;;;6137995;28;81154;-64
2022/03/31 06:33:07;;;;;;;4.38;2.33;;;23.60;39.40;;;;;;6136517;28;81481;-64
2022/03/31 06:36:08;;;;;;;2.78;1.70;;;23.60;39.40;;;;;;6138094;28;80376;-64
2022/03/31 06:39:08;;;;;;;1.83;1.60;;;23.60;39.30;;;;;;6136672;28;80576;-64
2022/03/31 06:42:10;;;;;;;2.22;1.50;;;23.60;39.40;;;;;;6136492;28;80391;-64
2022/03/31 06:45:12;;;;;;;2.38;1.65;;;23.60;39.30;;;;;;6135063;28;80336;-64
2022/03/31 06:48:12;;;;;;;2.92;1.73;;;23.60;39.30;;;;;;6132985;28;80572;-65
2022/03/31 06:51:13;;;;;;;1.73;1.50;;;23.60;39.40;;;;;;6136386;28;80547;-64
2022/03/31 06:54:14;;;;;;;1.85;1.40;;;23.60;39.30;;;;;;6130608;28;80829;-63
2022/03/31 06:57:14;;;;;;;2.08;1.63;;;23.60;39.30;;;;;;6130534;28;80916;-64
2022/03/31 07:00:15;;;;;;;2.63;1.60;;;23.60;39.30;;;;;;6129747;28;81658;-64
2022/03/31 07:03:16;;;;;;;1.95;1.50;;;23.60;39.20;;;;;;6134862;28;80389;-64
2022/03/31 07:06:16;;;;;;;1.63;1.50;;;23.60;39.20;;;;;;6135408;28;80542;-64
2022/03/31 07:09:17;;;;;;;2.15;1.42;;;23.50;39.00;;;;;;6129300;28;80817;-64
2022/03/31 07:12:17;;;;;;;2.92;1.77;;;23.50;39.00;;;;;;6133193;28;80622;-73
2022/03/31 07:15:19;;;;;;;2.58;1.50;;;23.50;38.90;;;;;;6140051;28;81510;-73
2022/03/31 07:18:19;;;;;;;4.22;2.03;;;23.60;38.90;;;;;;6137348;28;81533;-70
2022/03/31 07:21:20;;;;;;;6.07;2.55;;;23.60;38.90;;;;;;6139339;28;80336;-64
2022/03/31 07:24:20;;;;;;;8.55;2.40;;;23.60;38.90;;;;;;6119451;28;80982;-64
2022/03/31 07:27:21;;;;;;;7.22;2.38;;;23.60;39.30;;;;;;6117082;28;80498;-66
2022/03/31 07:30:22;;;;;;;5.90;2.45;;;23.60;38.80;;;;;;6143196;28;80654;-73
2022/03/31 07:33:22;;;;;;;4.75;2.75;;;23.60;39.00;;;;;;6147736;28;80246;-74
2022/03/31 07:36:23;;;;;;;6.15;2.70;;;23.70;38.90;;;;;;6147553;28;80382;-73
2022/03/31 07:39:23;;;;;;;4.30;2.30;;;23.70;39.40;;;;;;6147662;28;80476;-74
2022/03/31 07:42:24;;;;;;;5.05;2.10;;;23.80;38.60;;;;;;6138211;28;81400;-64
2022/03/31 07:45:25;;;;;;;7.78;2.50;;;23.80;38.40;;;;;;6136616;28;80246;-64
2022/03/31 07:48:25;;;;;;;3.28;2.17;;;23.90;38.30;;;;;;6132463;28;80295;-66
2022/03/31 07:51:26;;;;;;;5.25;2.50;;;23.90;38.30;;;;;;6116559;28;81152;-65
2022/03/31 07:54:27;;;;;;;2.20;1.63;;;23.90;38.30;;;;;;6125608;28;80511;-65
2022/03/31 07:57:28;;;;;;;3.28;2.10;;;24.00;38.30;;;;;;6116641;28;84062;-66
2022/03/31 08:00:28;;;;;;;5.75;2.45;;;24.00;38.30;;;;;;6115953;28;80602;-65
2022/03/31 08:03:29;;;;;;;3.97;2.25;;;24.00;38.30;;;;;;6140365;28;80391;-75
2022/03/31 08:06:29;;;;;;;2.95;2.13;;;24.00;38.30;;;;;;6140672;28;80594;-77
2022/03/31 08:09:30;;;;;;;3.95;2.05;;;24.00;38.20;;;;;;6116365;28;80388;-74
2022/03/31 08:12:31;;;;;;;3.78;2.20;;;24.00;38.00;;;;;;6113235;28;80406;-78
2022/03/31 08:15:31;;;;;;;2.85;2.13;;;24.10;38.00;;;;;;6112353;28;81144;-66
2022/03/31 08:18:34;;;;;;;15.18;6.75;;;24.10;37.80;;;;;;6123327;28;80449;-66
2022/03/31 08:21:35;;;;;;;45.53;24.15;;;24.10;38.20;;;;;;6127280;28;81150;-66
2022/03/31 08:24:35;;;;;;;103.22;48.40;;;24.00;38.40;;;;;;6108938;28;83340;-65
2022/03/31 08:27:36;;;;;;;123.20;60.10;;;24.10;38.70;;;;;;6118241;28;82991;-64
2022/03/31 08:30:37;;;;;;;102.13;48.67;;;24.00;38.90;;;;;;6119221;28;83167;-64
2022/03/31 08:33:38;;;;;;;85.57;43.85;;;24.10;38.80;;;;;;6108293;28;83231;-65
2022/03/31 08:36:38;;;;;;;76.82;38.08;;;24.10;38.90;;;;;;6117473;28;83185;-66
2022/03/31 08:39:39;;;;;;;68.68;34.67;;;24.10;38.80;;;;;;6121770;28;83013;-74
2022/03/31 08:42:39;;;;;;;69.53;31.00;;;24.10;39.00;;;;;;6120924;28;83368;-66
2022/03/31 08:45:40;;;;;;;69.53;32.13;;;24.10;38.70;;;;;;6132138;28;83062;-66
2022/03/31 08:48:40;;;;;;;58.15;30.73;;;24.10;38.70;;;;;;6132043;28;83630;-66
2022/03/31 08:51:41;;;;;;;50.10;25.95;;;24.10;38.80;;;;;;6120861;28;84534;-73
2022/03/31 08:54:41;;;;;;;47.97;24.15;;;24.10;39.10;;;;;;6133149;28;84638;-77
2022/03/31 08:57:42;;;;;;;48.92;22.83;;;24.10;39.10;;;;;;6131711;28;83060;-67
2022/03/31 09:00:42;;;;;;;38.60;19.95;;;24.10;39.50;;;;;;6136055;28;83099;-66
2022/03/31 09:03:43;;;;;;;38.00;20.25;;;24.10;39.40;;;;;;6121782;28;84166;-67
2022/03/31 09:06:43;;;;;;;41.20;18.88;;;24.10;39.30;;;;;;6130122;28;83316;-67
2022/03/31 09:09:44;;;;;;;53.28;20.55;;;24.10;39.60;;;;;;6108811;28;82980;-67
2022/03/31 09:12:44;;;;;;;84.25;26.17;;;24.10;39.70;;;;;;6108244;28;83574;-66
2022/03/31 09:15:45;;;;;;;110.28;34.80;;;24.10;40.00;;;;;;6108923;28;83370;-73
2022/03/31 09:18:45;;;;;;;126.00;39.10;;;24.00;40.80;;;;;;6130545;28;83539;-66
2022/03/31 09:21:46;;;;;;;168.20;49.35;;;24.00;41.20;;;;;;6131150;28;84191;-67
2022/03/31 09:24:46;;;;;;;200.20;58.85;;;24.00;41.30;;;;;;6131788;28;84670;-67
2022/03/31 09:27:47;;;;;;;242.90;66.45;;;24.00;42.20;;;;;;6128709;28;84413;-66
2022/03/31 09:30:48;;;;;;;175.57;51.03;;;24.00;41.90;;;;;;6131158;28;83005;-66
2022/03/31 09:33:48;;;;;;;117.65;36.35;;;24.00;41.40;;;;;;6115217;28;83639;-66
2022/03/31 09:36:49;;;;;;;88.97;26.73;;;24.00;40.10;;;;;;6121132;28;83176;-65
2022/03/31 09:39:49;;;;;;;73.32;29.08;;;24.10;38.90;;;;;;6131280;28;89583;-65
2022/03/31 09:42:50;;;;;;;60.95;26.55;;;24.10;38.40;;;;;;6135098;28;82991;-66
2022/03/31 09:45:50;;;;;;;52.40;24.58;;;24.10;38.20;;;;;;6135459;28;83556;-66
2022/03/31 09:48:51;;;;;;;54.75;21.10;;;24.10;38.10;;;;;;6117148;28;83177;-67
2022/03/31 09:51:52;;;;;;;60.22;32.35;;;24.10;37.20;;;;;;6132181;28;83045;-67
2022/03/31 09:54:52;;;;;;;62.63;35.95;;;24.10;37.40;;;;;;6135074;28;83637;-67
2022/03/31 09:57:53;;;;;;;70.38;42.10;;;24.10;36.90;;;;;;6142224;28;84408;-67
2022/03/31 10:00:53;;;;;;;75.68;47.95;;;24.10;37.00;;;;;;6115345;28;83594;-67
2022/03/31 10:03:56;;;;;;;51.60;35.75;;;24.10;36.70;;;;;;6121159;28;83179;-68
2022/03/31 10:06:56;;;;;;;37.08;24.25;;;24.10;36.70;;;;;;6121128;28;83498;-67
2022/03/31 10:09:57;;;;;;;36.38;23.77;;;24.00;36.50;;;;;;6123012;28;84096;-74
2022/03/31 10:12:58;;;;;;;32.53;18.70;;;24.00;36.70;;;;;;6119672;28;83197;-71
2022/03/31 10:15:58;;;;;;;27.98;16.45;;;23.90;36.60;;;;;;6125774;28;84285;-67
2022/03/31 10:18:59;;;;;;;19.27;12.32;;;23.90;36.80;;;;;;6129805;28;84190;-67
2022/03/31 10:21:59;;;;;;;18.42;9.95;;;23.80;36.80;;;;;;6129668;28;88876;-67
2022/03/31 10:25:00;;;;;;;15.70;9.80;;;23.80;37.00;;;;;;6117515;28;84301;-67
2022/03/31 10:28:00;;;;;;;13.25;8.18;;;23.70;37.00;;;;;;6134585;28;81575;-66
2022/03/31 10:31:01;;;;;;;12.30;7.78;;;23.70;37.10;;;;;;6138299;28;80365;-66
2022/03/31 10:34:02;;;;;;;11.88;7.05;;;23.70;37.10;;;;;;6138054;28;80797;-66
2022/03/31 10:37:02;;;;;;;11.65;6.70;;;23.70;37.20;;;;;;6137502;28;80282;-66
2022/03/31 10:40:03;;;;;;;10.07;6.97;;;23.70;37.30;;;;;;6138033;28;80763;-67
2022/03/31 10:43:05;;;;;;;10.43;6.25;;;23.70;37.50;;;;;;6129904;28;80308;-66
2022/03/31 10:46:06;;;;;;;11.02;5.97;;;23.70;37.80;;;;;;6137938;28;80458;-67
2022/03/31 10:49:09;;;;;;;8.63;5.78;;;23.70;38.60;;;;;;6136517;28;81411;-66
2022/03/31 10:52:09;;;;;;;12.45;5.38;;;23.70;38.80;;;;;;6143021;28;87116;-67
2022/03/31 10:55:10;;;;;;;14.95;6.03;;;23.70;39.50;;;;;;6139935;28;83774;-66
2022/03/31 10:58:11;;;;;;;13.32;5.53;;;23.70;40.40;;;;;;6137712;28;80119;-68
2022/03/31 11:01:11;;;;;;;15.43;5.28;;;23.70;42.20;;;;;;6136970;28;80502;-66
2022/03/31 11:04:12;;;;;;;10.55;5.28;;;23.70;43.80;;;;;;6131578;28;80845;-66
2022/03/31 11:07:13;;;;;;;7.82;4.68;;;23.70;43.40;;;;;;6113104;28;80544;-66
2022/03/31 11:10:13;;;;;;;11.02;5.43;;;23.70;43.60;;;;;;6132313;28;81128;-64
2022/03/31 11:13:16;;;;;;;7.60;3.85;;;23.70;43.70;;;;;;6136218;28;80360;-66
2022/03/31 11:16:16;;;;;;;10.60;4.65;;;23.70;44.10;;;;;;6133552;28;81024;-67
2022/03/31 11:19:19;;;;;;;8.43;4.07;;;23.70;44.00;;;;;;6135266;28;80624;-65
2022/03/31 11:22:20;;;;;;;7.97;3.72;;;23.80;43.60;;;;;;6124515;28;81255;-66
2022/03/31 11:25:20;;;;;;;9.75;3.90;;;23.70;43.40;;;;;;6124379;28;80825;-66
2022/03/31 11:28:21;;;;;;;9.57;4.45;;;23.70;43.30;;;;;;6130708;28;80260;-67
2022/03/31 11:31:21;;;;;;;6.93;3.47;;;23.70;43.30;;;;;;6132166;28;81160;-66
2022/03/31 11:34:22;;;;;;;6.80;3.70;;;23.80;43.70;;;;;;6133580;28;80491;-66
2022/03/31 11:37:24;;;;;;;5.43;3.70;;;23.80;44.00;;;;;;6129917;28;80338;-66
2022/03/31 11:40:24;;;;;;;6.18;3.28;;;23.80;44.70;;;;;;6134226;28;85403;-66
2022/03/31 11:43:25;;;;;;;5.05;3.28;;;23.80;45.10;;;;;;6135522;28;80363;-66
2022/03/31 11:46:26;;;;;;;6.45;3.80;;;23.80;45.50;;;;;;6135226;28;80568;-66
2022/03/31 11:49:26;;;;;;;4.03;2.90;;;23.80;46.70;;;;;;6130512;28;81581;-66
2022/03/31 11:52:27;;;;;;;5.30;3.13;;;23.80;46.40;;;;;;6150113;28;81499;-66
2022/03/31 11:55:27;;;;;;;6.05;3.33;;;23.80;46.10;;;;;;6135451;28;80744;-65
2022/03/31 11:58:28;;;;;;;7.18;3.67;;;23.80;46.40;;;;;;6137245;28;80666;-67
2022/03/31 12:01:28;;;;;;;5.97;3.22;;;23.80;45.20;;;;;;6135904;28;80287;-65
2022/03/31 12:04:30;;;;;;;3.25;2.70;;;23.80;45.00;;;;;;6135637;28;81389;-65
2022/03/31 12:07:31;;;;;;;4.50;3.15;;;23.80;44.90;;;;;;6135883;28;80500;-66
2022/03/31 12:10:32;;;;;;;4.13;2.65;;;23.90;44.60;;;;;;6134499;28;80538;-66
2022/03/31 12:13:32;;;;;;;8.25;2.97;;;23.80;44.40;;;;;;6135768;28;80752;-66
2022/03/31 12:16:33;;;;;;;2.97;2.47;;;23.80;44.00;;;;;;6136126;28;80439;-66
2022/03/31 12:19:33;;;;;;;5.53;3.10;;;23.80;43.60;;;;;;6136116;28;80798;-66
2022/03/31 12:22:34;;;;;;;3.72;2.88;;;23.90;43.50;;;;;;6135954;28;80434;-66
2022/03/31 12:25:34;;;;;;;4.53;2.72;;;23.90;43.40;;;;;;6135892;28;81060;-67
2022/03/31 12:28:36;;;;;;;6.40;3.30;;;23.80;43.30;;;;;;6135948;28;80883;-63
2022/03/31 12:31:37;;;;;;;4.57;2.80;;;23.80;43.00;;;;;;6122946;28;80078;-68
2022/03/31 12:34:38;;;;;;;3.10;2.70;;;23.80;42.70;;;;;;6116509;28;82051;-66
2022/03/31 12:37:38;;;;;;;5.78;3.45;;;23.80;42.60;;;;;;6132184;28;80605;-65
2022/03/31 12:40:39;;;;;;;6.63;3.15;;;23.80;42.50;;;;;;6124261;28;80493;-66
2022/03/31 12:43:39;;;;;;;3.33;2.78;;;23.80;42.40;;;;;;6131494;28;86518;-67
2022/03/31 12:46:40;;;;;;;3.72;2.80;;;23.80;42.30;;;;;;6135061;28;82051;-67
2022/03/31 12:49:41;;;;;;;4.13;3.03;;;23.90;42.00;;;;;;6136327;28;80538;-71
2022/03/31 12:52:41;;;;;;;5.50;2.47;;;23.90;41.70;;;;;;6134172;28;82606;-69
2022/03/31 12:55:43;;;;;;;4.65;2.20;;;23.90;41.30;;;;;;6135232;28;81406;-71
2022/03/31 12:58:44;;;;;;;3.25;2.40;;;23.90;41.00;;;;;;6136046;28;80274;-70
2022/03/31 13:01:44;;;;;;;6.30;2.97;;;23.90;40.70;;;;;;6135512;28;84703;-69
2022/03/31 13:04:45;;;;;;;3.63;2.88;;;23.90;40.50;;;;;;6126536;28;80401;-67
2022/03/31 13:07:46;;;;;;;3.65;2.38;;;23.90;40.30;;;;;;6131913;28;80315;-69
2022/03/31 13:10:46;;;;;;;4.05;2.97;;;23.90;40.30;;;;;;6133313;28;80789;-64
2022/03/31 13:13:47;;;;;;;4.40;2.65;;;23.90;40.30;;;;;;6133247;28;80482;-68
2022/03/31 13:16:47;;;;;;;3.80;2.40;;;24.00;40.30;;;;;;6133919;28;81336;-68
2022/03/31 13:19:48;;;;;;;3.17;2.35;;;24.00;40.00;;;;;;6135397;28;80457;-65
2022/03/31 13:22:48;;;;;;;3.92;2.63;;;24.00;39.80;;;;;;6125125;28;80604;-68
2022/03/31 13:25:49;;;;;;;2.75;2.40;;;24.00;39.80;;;;;;6130396;28;81790;-68
2022/03/31 13:28:49;;;;;;;3.38;2.53;;;24.00;39.60;;;;;;6117276;28;81857;-68
2022/03/31 13:31:53;;;;;;;3.30;2.22;;;24.00;39.40;;;;;;6135051;28;80524;-65
2022/03/31 13:34:55;;;;;;;4.38;2.78;;;24.00;39.70;;;;;;6134534;28;80633;-66
2022/03/31 13:37:55;;;;;;;2.20;2.00;;;24.00;38.90;;;;;;6134742;28;80008;-66
2022/03/31 13:40:56;;;;;;;3.38;2.60;;;24.00;38.60;;;;;;6134220;28;82180;-66
2022/03/31 13:43:56;;;;;;;3.10;2.80;;;24.00;38.50;;;;;;6134866;28;80556;-66
2022/03/31 13:46:57;;;;;;;3.83;2.47;;;24.00;38.30;;;;;;6134680;28;80302;-66
2022/03/31 13:49:57;;;;;;;3.70;2.55;;;24.00;38.30;;;;;;6129228;28;81537;-67
2022/03/31 13:56:17;;;;;;;4.40;2.55;;;24.00;38.30;;;;;;6130509;28;80422;-67
2022/03/31 14:02:37;;;;;;;4.45;2.95;;;24.00;38.30;;;;;;6134038;28;80863;-68
2022/03/31 14:05:38;;;;;;;7.57;2.60;;;23.90;38.40;;;;;;6132080;28;81826;-67
2022/03/31 14:08:39;;;;;;;5.78;3.10;;;24.00;39.00;;;;;;6132935;28;80694;-66
2022/03/31 14:11:39;;;;;;;6.53;2.97;;;23.90;39.30;;;;;;6151757;28;80802;-66
2022/03/31 14:14:40;;;;;;;4.70;2.80;;;24.00;39.50;;;;;;6134298;28;80337;-66
2022/03/31 14:17:40;;;;;;;36.63;15.32;;;24.00;39.50;;;;;;6134000;28;80901;-66
2022/03/31 14:20:41;;;;;;;116.63;50.90;;;24.00;39.30;;;;;;6130443;28;83079;-67
2022/03/31 14:23:42;;;;;;;176.45;80.07;;;24.00;39.40;;;;;;6125984;28;83897;-67
2022/03/31 14:26:42;;;;;;;175.38;79.28;;;24.00;39.60;;;;;;6107423;28;82972;-65
2022/03/31 14:29:44;;;;;;;200.95;88.53;;;24.00;39.90;;;;;;6133922;28;82929;-67
2022/03/31 14:32:45;;;;;;;235.75;104.50;;;24.00;39.50;;;;;;6133993;28;83648;-67
2022/03/31 14:35:45;;;;;;;282.55;126.38;;;24.00;39.40;;;;;;6131668;28;85557;-67
2022/03/31 14:38:46;;;;;;;269.65;120.78;;;24.00;39.60;;;;;;6119127;28;86035;-67
2022/03/31 14:41:48;;;;;;;217.98;98.45;;;24.00;39.90;;;;;;6107771;28;85470;-64
2022/03/31 14:44:49;;;;;;;200.57;90.82;;;24.00;40.30;;;;;;6131594;28;85516;-68
2022/03/31 14:47:49;;;;;;;178.52;84.88;;;24.00;40.10;;;;;;6133443;28;84442;-69
2022/03/31 14:50:50;;;;;;;176.43;80.82;;;24.00;40.00;;;;;;6134102;28;83170;-66
2022/03/31 14:53:50;;;;;;;154.02;67.57;;;24.00;40.00;;;;;;6131173;28;83066;-68
2022/03/31 14:56:51;;;;;;;148.40;65.93;;;24.00;40.10;;;;;;6121298;28;83103;-68
2022/03/31 14:59:52;;;;;;;121.15;56.35;;;24.00;39.70;;;;;;6129804;28;83163;-67
2022/03/31 15:02:52;;;;;;;122.75;52.67;;;24.00;40.60;;;;;;6133841;28;82895;-65
2022/03/31 15:05:53;;;;;;;108.82;48.35;;;23.90;39.80;;;;;;6129801;28;83202;-67
2022/03/31 15:08:54;;;;;;;98.15;45.40;;;23.90;39.60;;;;;;6119234;28;83233;-66
2022/03/31 15:15:13;;;;;;;70.13;34.25;;;23.90;39.60;;;;;;6130241;28;82840;-66
2022/03/31 15:18:14;;;;;;;89.15;33.95;;;23.80;39.70;;;;;;6133896;28;83004;-69
2022/03/31 15:21:14;;;;;;;71.57;33.58;;;23.80;40.20;;;;;;6133698;28;83399;-64
2022/03/31 15:24:18;;;;;;;67.28;30.85;;;23.80;40.10;;;;;;6111857;28;84405;-66
2022/03/31 15:27:18;;;;;;;58.67;28.45;;;23.80;40.40;;;;;;6094017;28;83953;-67
2022/03/31 15:30:19;;;;;;;54.63;25.98;;;23.80;40.20;;;;;;6106012;28;83178;-67
2022/03/31 15:33:19;;;;;;;50.47;24.20;;;23.80;40.00;;;;;;6105139;28;83043;-68
2022/03/31 15:36:20;;;;;;;46.33;21.92;;;23.80;40.00;;;;;;6096536;28;82869;-69
2022/03/31 15:39:23;;;;;;;42.50;19.58;;;23.90;40.00;;;;;;6107360;28;84065;-67
2022/03/31 15:42:24;;;;;;;36.45;19.80;;;23.90;39.90;;;;;;6107882;28;84063;-66
2022/03/31 15:45:25;;;;;;;36.60;18.25;;;23.90;40.30;;;;;;6101799;28;83735;-65